Terminal Aerodrome Forecast
Issued by NWS

Home | Current Version | Previous Version | Text Only | Print | Product List | Glossary On
Versions: 1 2 3 4 5 6 7 8 9 10 11 12 13 14 15 16 17 18 19
000
FTUS43 KGRB 251600 AAA
TAFATW
TAF AMD
KATW 251631Z 2517/2612 05014G22KT P6SM BKN020 OVC040
     FM252100 04012G18KT P6SM SCT025
     FM252300 04007KT P6SM SCT200
     FM260400 VRB03KT P6SM SCT100 BKN200
     FM261000 VRB03KT P6SM BKN090=

USA.gov is the U.S. government's official web portal to all federal, state and local government web resources and services.